createdAt,value
2019-05-23T03:44:29.300Z,99.90
2019-05-23T03:46:31.203Z,99.90
2019-05-23T03:48:32.984Z,99.90
2019-05-23T03:50:34.864Z,99.90
2019-05-23T03:52:38.091Z,99.90
2019-05-23T03:54:41.660Z,99.90
2019-05-23T03:56:45.654Z,99.90
2019-05-23T03:58:47.623Z,99.90
2019-05-23T04:00:50.377Z,99.90
2019-05-23T04:02:51.728Z,99.90
2019-05-23T04:04:53.491Z,99.90
2019-05-23T04:06:56.571Z,99.90
2019-05-23T04:08:57.865Z,99.90
2019-05-23T04:10:59.850Z,99.90
2019-05-23T04:13:01.664Z,99.90
2019-05-23T04:15:04.125Z,99.90
2019-05-23T04:17:07.097Z,99.90
2019-05-23T04:19:08.465Z,99.90
2019-05-23T04:21:09.840Z,99.90
2019-05-23T04:23:12.905Z,99.90
2019-05-23T04:25:14.471Z,99.90
2019-05-23T04:27:15.857Z,99.90
2019-05-23T04:29:17.118Z,99.90
2019-05-23T04:31:18.656Z,99.90
2019-05-23T04:33:20.201Z,99.90
2019-05-23T04:35:21.854Z,99.90
2019-05-23T04:37:23.010Z,99.90
2019-05-23T04:39:24.624Z,99.90
2019-05-23T04:41:25.916Z,99.90
2019-05-23T04:43:27.193Z,99.90
2019-05-23T04:45:29.541Z,99.90
2019-05-23T04:47:31.185Z,99.90
2019-05-23T04:49:32.424Z,99.90
2019-05-23T04:51:34.427Z,99.90
2019-05-23T04:53:35.695Z,99.90
2019-05-23T04:55:37.592Z,99.90
2019-05-23T04:57:40.045Z,99.90
2019-05-23T04:59:41.503Z,99.90
2019-05-23T05:01:42.867Z,99.90
2019-05-23T05:03:45.738Z,99.90
2019-05-23T05:05:47.137Z,99.90
2019-05-23T05:07:50.249Z,99.90
2019-05-23T05:09:51.450Z,99.90
2019-05-23T05:11:52.945Z,99.90
2019-05-23T05:13:54.463Z,99.90
2019-05-23T05:15:55.723Z,99.90
2019-05-23T05:17:57.166Z,99.90
2019-05-23T05:19:59.537Z,99.90
2019-05-23T05:22:00.857Z,99.90
2019-05-23T05:24:02.258Z,99.90
2019-05-23T05:26:07.746Z,99.90
2019-05-23T05:28:09.043Z,99.90
2019-05-23T05:30:11.385Z,99.90
2019-05-23T05:32:14.575Z,99.90
2019-05-23T05:34:16.729Z,99.90
2019-05-23T05:36:17.998Z,99.90
2019-05-23T05:38:19.802Z,99.90
2019-05-23T05:40:21.083Z,99.90
2019-05-23T05:42:22.869Z,99.90
2019-05-23T05:44:24.659Z,99.90
2019-05-23T05:46:26.637Z,99.90
2019-05-23T05:48:29.272Z,99.90
2019-05-23T05:50:30.982Z,99.90
2019-05-23T05:52:33.643Z,99.90
2019-05-23T05:54:35.861Z,99.90
2019-05-23T05:56:37.141Z,99.90
2019-05-23T05:58:38.421Z,99.90
2019-05-23T06:00:41.602Z,99.90
2019-05-23T06:02:43.073Z,99.90
2019-05-23T06:04:44.638Z,99.90
2019-05-23T06:06:50.068Z,99.90
2019-05-23T06:08:57.088Z,99.90
2019-05-23T06:10:59.054Z,99.90
2019-05-23T06:13:00.535Z,99.90
2019-05-23T06:15:04.016Z,99.90
2019-05-23T06:17:07.299Z,99.90
2019-05-23T06:19:08.878Z,99.90
2019-05-23T06:21:11.805Z,99.90
2019-05-23T06:23:13.580Z,99.90
2019-05-23T06:25:14.982Z,99.90
2019-05-23T06:27:18.659Z,99.90
2019-05-23T06:29:20.144Z,99.90
2019-05-23T06:31:21.791Z,99.90
2019-05-23T06:33:24.562Z,99.90
2019-05-23T06:35:26.835Z,99.90
2019-05-23T06:37:33.517Z,99.90
2019-05-23T06:39:33.029Z,99.90
2019-05-23T06:41:34.694Z,99.90
2019-05-23T06:43:36.101Z,99.90
2019-05-23T06:45:38.857Z,99.90
2019-05-23T06:47:40.617Z,99.90
2019-05-23T06:49:41.911Z,99.90
2019-05-23T06:51:43.165Z,99.90
2019-05-23T06:53:45.142Z,99.90
2019-05-23T06:55:46.398Z,99.90
2019-05-23T06:57:48.086Z,99.90
2019-05-23T06:59:49.598Z,99.90
2019-05-23T07:01:50.971Z,99.90
2019-05-23T07:03:52.250Z,99.90
2019-05-23T07:05:53.518Z,99.90
2019-05-23T07:07:55.284Z,99.90
2019-05-23T07:09:57.387Z,99.90
2019-05-23T07:11:59.414Z,99.90
2019-05-23T07:14:03.497Z,99.90
2019-05-23T07:16:04.763Z,99.90
2019-05-23T07:18:06.866Z,99.90
2019-05-23T07:20:08.548Z,99.90
2019-05-23T07:22:10.806Z,99.90
2019-05-23T07:24:12.890Z,99.90
2019-05-23T07:26:14.858Z,99.90
2019-05-23T07:28:16.118Z,99.90
2019-05-23T07:30:24.751Z,99.90
2019-05-23T07:32:27.005Z,99.90
2019-05-23T07:34:28.990Z,99.90
2019-05-23T07:36:30.851Z,99.90
2019-05-23T07:38:32.119Z,99.90
2019-05-23T07:40:33.493Z,99.90
2019-05-23T07:42:34.844Z,99.90
2019-05-23T07:44:47.903Z,99.90
2019-05-23T07:46:40.412Z,99.90
2019-05-23T07:48:42.189Z,99.90
2019-05-23T07:50:44.700Z,99.90
2019-05-23T07:52:46.014Z,99.90
2019-05-23T07:54:52.198Z,99.90
2019-05-23T07:56:54.562Z,99.90
2019-05-23T07:58:56.262Z,99.90
2019-05-23T08:01:05.961Z,99.90
2019-05-23T08:03:08.051Z,99.90
2019-05-23T08:05:11.431Z,99.90
2019-05-23T08:07:14.593Z,99.90
2019-05-23T08:09:18.153Z,99.90
2019-05-23T08:11:19.792Z,99.90
2019-05-23T08:13:20.935Z,99.90
2019-05-23T08:15:22.323Z,99.90
2019-05-23T08:17:23.882Z,99.90
2019-05-23T08:19:25.026Z,99.90
2019-05-23T08:21:26.322Z,99.90
2019-05-23T08:23:27.686Z,99.90
2019-05-23T08:25:28.953Z,98.20
2019-05-23T08:27:32.160Z,95.50
2019-05-23T08:29:34.055Z,97.70
2019-05-23T08:31:35.630Z,97.30
2019-05-23T08:33:37.191Z,97.00
2019-05-23T08:35:39.324Z,95.30
2019-05-23T08:37:40.950Z,95.70
2019-05-23T08:39:42.706Z,93.50
2019-05-23T08:41:44.263Z,93.20
2019-05-23T08:43:46.524Z,93.40
2019-05-23T08:45:47.812Z,91.90
2019-05-23T08:47:49.683Z,93.90
2019-05-23T08:49:51.462Z,95.30
2019-05-23T08:51:54.543Z,91.50
2019-05-23T08:53:55.913Z,84.90
2019-05-23T08:55:57.253Z,86.10
2019-05-23T08:57:58.819Z,73.50
2019-05-23T09:00:00.082Z,80.60
2019-05-23T09:02:02.555Z,82.40
2019-05-23T09:04:04.163Z,84.40
2019-05-23T09:06:05.315Z,78.30
2019-05-23T09:08:08.819Z,81.20
2019-05-23T09:10:10.410Z,83.40
2019-05-23T09:12:11.584Z,80.70
2019-05-23T09:14:12.967Z,78.70
2019-05-23T09:16:14.767Z,70.20
2019-05-23T09:18:16.245Z,68.60
2019-05-23T09:20:17.793Z,79.50
2019-05-23T09:22:19.062Z,80.10
2019-05-23T09:24:20.427Z,73.50
2019-05-23T09:26:22.026Z,79.30
2019-05-23T09:28:23.870Z,81.70
2019-05-23T09:30:25.664Z,68.20
2019-05-23T09:32:26.935Z,66.50
2019-05-23T09:34:28.676Z,72.60
2019-05-23T09:36:29.978Z,77.30
2019-05-23T09:38:31.446Z,79.50
2019-05-23T09:40:33.108Z,67.50
2019-05-23T09:42:35.850Z,71.20
2019-05-23T09:44:37.187Z,67.80
2019-05-23T09:46:38.560Z,69.90
2019-05-23T09:48:41.490Z,70.60
2019-05-23T09:50:42.907Z,68.50
2019-05-23T09:52:45.626Z,72.50
2019-05-23T09:54:46.797Z,75.10
2019-05-23T09:56:48.255Z,78.30
2019-05-23T09:58:50.625Z,78.20
2019-05-23T10:00:52.003Z,66.30
2019-05-23T10:02:53.936Z,68.70
2019-05-23T10:04:55.611Z,67.70
2019-05-23T10:06:56.882Z,62.00
2019-05-23T10:08:58.357Z,62.20
2019-05-23T10:11:00.097Z,59.80
2019-05-23T10:13:01.359Z,65.50
2019-05-23T10:15:05.031Z,66.20
2019-05-23T10:17:06.401Z,69.90
2019-05-23T10:19:07.775Z,65.00
2019-05-23T10:21:09.151Z,67.40
2019-05-23T10:23:10.413Z,70.80
2019-05-23T10:25:11.974Z,65.00
2019-05-23T10:27:13.330Z,62.40
2019-05-23T10:29:15.607Z,62.90
2019-05-23T10:31:18.338Z,68.20
2019-05-23T10:33:19.619Z,57.60
2019-05-23T10:35:20.989Z,58.50
2019-05-23T10:37:22.362Z,63.40
2019-05-23T10:39:23.932Z,57.00
2019-05-23T10:41:25.114Z,57.80
2019-05-23T10:43:26.590Z,56.20
2019-05-23T10:45:28.065Z,58.20
2019-05-23T10:47:29.735Z,67.90
2019-05-23T10:49:31.008Z,62.10
2019-05-23T10:51:32.285Z,54.50
2019-05-23T10:53:33.546Z,56.40
2019-05-23T10:55:35.037Z,59.40
2019-05-23T10:57:36.309Z,65.50
2019-05-23T10:59:37.691Z,54.90
2019-05-23T11:01:38.956Z,55.30
2019-05-23T11:03:40.209Z,58.90
2019-05-23T11:05:41.784Z,55.10
2019-05-23T11:07:43.156Z,54.80
2019-05-23T11:09:44.875Z,55.90
2019-05-23T11:11:46.680Z,54.40
2019-05-23T11:13:48.128Z,57.10
2019-05-23T11:15:49.505Z,60.20
2019-05-23T11:17:53.594Z,56.20
2019-05-23T11:19:54.898Z,53.90
2019-05-23T11:21:56.580Z,51.70
2019-05-23T11:23:58.249Z,48.20
2019-05-23T11:26:02.937Z,48.60
2019-05-23T11:28:04.466Z,51.30
2019-05-23T11:30:09.967Z,50.90
2019-05-23T11:32:11.847Z,53.20
2019-05-23T11:34:13.503Z,50.60
2019-05-23T11:36:33.247Z,49.80
2019-05-23T11:38:19.871Z,60.40
2019-05-23T11:40:21.481Z,62.00
2019-05-23T11:42:22.853Z,60.70
2019-05-23T11:44:24.205Z,55.30
2019-05-23T11:46:27.633Z,53.30
2019-05-23T11:48:29.204Z,44.00
2019-05-23T11:50:30.928Z,46.40
2019-05-23T11:52:32.206Z,56.20
2019-05-23T11:54:34.662Z,51.60
2019-05-23T11:56:37.970Z,56.30
2019-05-23T11:58:39.929Z,54.70
2019-05-23T12:00:52.543Z,45.90
2019-05-23T12:02:54.026Z,44.40
2019-05-23T12:04:57.309Z,45.60
2019-05-23T12:07:10.495Z,45.30
2019-05-23T12:09:12.740Z,46.50
2019-05-23T12:11:15.275Z,53.20
2019-05-23T12:13:16.642Z,58.70
2019-05-23T12:15:20.344Z,46.10
2019-05-23T12:17:22.096Z,47.20
2019-05-23T12:19:23.892Z,49.70
2019-05-23T12:21:25.547Z,54.70
2019-05-23T12:23:26.806Z,46.60
2019-05-23T12:25:29.866Z,50.20
2019-05-23T12:27:31.404Z,56.80
2019-05-23T12:29:33.698Z,55.40
2019-05-23T12:31:34.988Z,51.60
2019-05-23T12:33:36.591Z,50.40
2019-05-23T12:35:38.151Z,47.10
2019-05-23T12:37:39.809Z,43.50
2019-05-23T12:39:41.190Z,43.90
2019-05-23T12:41:42.639Z,49.00
2019-05-23T12:43:44.214Z,46.70
2019-05-23T12:45:45.775Z,55.90
2019-05-23T12:48:04.064Z,45.10
2019-05-23T12:50:08.107Z,44.70
2019-05-23T12:52:10.277Z,48.70
2019-05-23T12:54:11.560Z,47.50
2019-05-23T12:56:13.861Z,41.90
2019-05-23T12:58:15.710Z,49.00
2019-05-23T13:00:35.713Z,43.80
2019-05-23T13:02:37.935Z,41.80
2019-05-23T13:04:39.830Z,49.80
2019-05-23T13:06:41.359Z,44.20
2019-05-23T13:08:42.859Z,44.40
2019-05-23T13:10:44.574Z,44.50
2019-05-23T13:12:45.926Z,44.60
2019-05-23T13:14:47.204Z,45.90
2019-05-23T13:16:48.489Z,52.70
2019-05-23T13:18:50.766Z,46.60
2019-05-23T13:20:52.541Z,45.80
2019-05-23T13:22:54.044Z,52.10
2019-05-23T13:24:55.328Z,54.90
2019-05-23T13:26:57.818Z,43.30
2019-05-23T13:28:59.086Z,46.10
2019-05-23T13:31:01.207Z,42.90
2019-05-23T13:33:03.746Z,47.20
2019-05-23T13:35:06.565Z,43.90
2019-05-23T13:37:09.750Z,44.40
2019-05-23T13:39:11.030Z,51.70
2019-05-23T13:41:12.545Z,45.00
2019-05-23T13:43:13.802Z,43.90
2019-05-23T13:45:15.189Z,44.10
2019-05-23T13:47:16.447Z,42.70
2019-05-23T13:49:17.836Z,44.90
2019-05-23T13:51:19.079Z,48.30
2019-05-23T13:53:20.602Z,48.60
2019-05-23T13:55:21.860Z,48.20
2019-05-23T13:57:23.243Z,47.20
2019-05-23T13:59:24.526Z,49.80
2019-05-23T14:01:26.053Z,50.10
2019-05-23T14:03:27.567Z,50.40
2019-05-23T14:05:29.112Z,39.90
2019-05-23T14:07:31.283Z,48.50
2019-05-23T14:09:33.716Z,41.40
2019-05-23T14:11:35.085Z,46.20
2019-05-23T14:13:36.550Z,52.40
2019-05-23T14:15:45.594Z,50.10
2019-05-23T14:17:48.101Z,49.10
2019-05-23T14:19:50.137Z,50.80
2019-05-23T14:21:51.970Z,41.70
2019-05-23T14:23:53.567Z,41.30
2019-05-23T14:25:56.734Z,52.20
2019-05-23T14:28:00.120Z,48.60
2019-05-23T14:30:13.013Z,49.40
2019-05-23T14:32:20.585Z,43.90
2019-05-23T14:34:22.706Z,47.20
2019-05-23T14:36:42.533Z,45.50
2019-05-23T14:38:46.403Z,43.10
2019-05-23T14:40:47.668Z,41.70
2019-05-23T14:42:59.974Z,42.00
2019-05-23T14:45:01.962Z,47.20
2019-05-23T14:47:17.978Z,41.90
2019-05-23T14:49:27.550Z,45.60
2019-05-23T14:51:36.931Z,44.70
2019-05-23T14:53:56.622Z,43.40
2019-05-23T14:55:57.906Z,53.00
2019-05-23T14:57:59.683Z,46.40
2019-05-23T15:00:01.373Z,50.80
2019-05-23T15:02:03.471Z,41.00
2019-05-23T15:04:05.657Z,49.20
2019-05-23T15:06:07.084Z,45.00
2019-05-23T15:08:08.236Z,51.30
2019-05-23T15:10:10.030Z,52.00
2019-05-23T15:12:11.558Z,40.50
2019-05-23T15:14:13.010Z,41.10
2019-05-23T15:16:15.801Z,41.40
2019-05-23T15:18:17.075Z,43.50
2019-05-23T15:20:18.750Z,46.50
2019-05-23T15:22:20.070Z,45.80
2019-05-23T15:24:21.448Z,47.30
2019-05-23T15:26:23.828Z,43.70
2019-05-23T15:28:25.582Z,46.60
2019-05-23T15:30:26.731Z,51.00
2019-05-23T15:32:28.130Z,50.00
2019-05-23T15:34:29.637Z,49.30
2019-05-23T15:36:30.918Z,49.80
2019-05-23T15:38:32.427Z,49.50
2019-05-23T15:40:33.808Z,41.80
2019-05-23T15:42:35.146Z,41.70
2019-05-23T15:44:36.417Z,43.00
2019-05-23T15:46:37.813Z,43.00
2019-05-23T15:48:39.243Z,52.80
2019-05-23T15:50:51.416Z,47.60
2019-05-23T15:52:54.605Z,42.70
2019-05-23T15:55:00.419Z,45.90
2019-05-23T15:57:06.362Z,42.70
2019-05-23T15:59:18.858Z,47.70
2019-05-23T16:01:25.243Z,46.00
2019-05-23T16:03:34.588Z,47.70
2019-05-23T16:05:37.379Z,49.40
2019-05-23T16:07:38.699Z,45.40
2019-05-23T16:09:40.082Z,42.90
2019-05-23T16:11:41.267Z,43.90
2019-05-23T16:13:43.232Z,47.50
2019-05-23T16:15:44.806Z,45.80
2019-05-23T16:17:46.256Z,47.30
2019-05-23T16:19:47.815Z,46.80
2019-05-23T16:21:49.242Z,46.40
2019-05-23T16:23:50.601Z,47.60
2019-05-23T16:27:37.237Z,45.90
2019-05-23T16:29:39.622Z,46.40
2019-05-23T16:31:41.261Z,40.50
2019-05-23T16:33:42.860Z,45.40
2019-05-23T16:35:44.748Z,46.10
2019-05-23T16:37:46.315Z,47.20
2019-05-23T16:39:49.810Z,43.10
2019-05-23T16:41:50.794Z,42.10
2019-05-23T16:43:53.067Z,41.50
2019-05-23T16:45:54.356Z,46.40
2019-05-23T16:47:55.848Z,46.50
2019-05-23T16:49:57.124Z,37.70
2019-05-23T16:51:58.369Z,46.90
2019-05-23T16:54:01.131Z,37.10
2019-05-23T16:56:04.828Z,45.80
2019-05-23T16:58:10.920Z,50.40
2019-05-23T17:00:27.143Z,47.40
2019-05-23T17:02:36.059Z,48.30
2019-05-23T17:04:44.770Z,47.30
2019-05-23T17:06:56.528Z,44.40
2019-05-23T17:09:14.918Z,38.50
2019-05-23T17:11:18.108Z,48.20
2019-05-23T17:13:21.282Z,41.00
2019-05-23T17:15:30.802Z,42.00
2019-05-23T17:18:00.228Z,50.10
2019-05-23T17:19:48.081Z,50.70
2019-05-23T17:21:57.137Z,45.00
2019-05-23T17:24:00.869Z,44.10
2019-05-23T17:26:04.621Z,50.50
2019-05-23T17:28:09.706Z,47.20
2019-05-23T17:30:16.778Z,49.70
2019-05-23T17:32:20.241Z,47.50
2019-05-23T17:34:21.683Z,44.30
2019-05-23T17:36:23.045Z,53.20
2019-05-23T17:38:24.561Z,53.90
2019-05-23T17:40:26.079Z,54.20
2019-05-23T17:42:27.482Z,42.90
2019-05-23T17:44:28.746Z,44.50
2019-05-23T17:46:30.302Z,53.90
2019-05-23T17:48:31.721Z,49.30
2019-05-23T17:50:34.975Z,45.00
2019-05-23T17:52:40.024Z,56.20
2019-05-23T17:54:41.555Z,54.80
2019-05-23T17:56:42.831Z,53.70
2019-05-23T17:58:44.739Z,56.60
2019-05-23T18:00:48.062Z,53.60
2019-05-23T18:02:49.493Z,56.50
2019-05-23T18:04:50.740Z,55.60
2019-05-23T18:06:52.182Z,55.40
2019-05-23T18:08:56.386Z,53.60
2019-05-23T18:10:58.227Z,56.50
2019-05-23T18:13:00.978Z,55.10
2019-05-23T18:15:04.150Z,56.10
2019-05-23T18:17:05.943Z,56.60
2019-05-23T18:19:07.090Z,57.10
2019-05-23T18:21:08.567Z,56.00
2019-05-23T18:23:10.502Z,57.00
2019-05-23T18:25:12.566Z,55.80
2019-05-23T18:27:14.343Z,57.40
2019-05-23T18:29:16.061Z,57.00
2019-05-23T18:31:19.234Z,58.40
2019-05-23T18:33:22.717Z,58.40
2019-05-23T18:35:24.712Z,57.20
2019-05-23T18:37:26.581Z,57.30
2019-05-23T18:39:28.841Z,57.70
2019-05-23T18:41:30.374Z,57.90
2019-05-23T18:43:32.452Z,58.40
2019-05-23T18:45:35.427Z,57.90
2019-05-23T18:47:38.617Z,58.00
2019-05-23T18:49:40.269Z,58.30
2019-05-23T18:51:41.831Z,57.80
2019-05-23T18:53:43.285Z,57.70
2019-05-23T18:55:44.958Z,57.60
2019-05-23T18:57:46.255Z,58.30
2019-05-23T18:59:48.636Z,56.90
2019-05-23T19:01:49.987Z,58.70
2019-05-23T19:03:51.683Z,58.20
2019-05-23T19:05:53.647Z,58.50
2019-05-23T19:07:56.130Z,55.70
2019-05-23T19:09:59.117Z,57.50
2019-05-23T19:12:00.827Z,57.50
2019-05-23T19:14:03.340Z,54.60
2019-05-23T19:16:05.054Z,59.10
2019-05-23T19:18:07.230Z,58.70
2019-05-23T19:20:10.269Z,59.60
2019-05-23T19:22:12.675Z,60.50
2019-05-23T19:24:15.273Z,60.00
2019-05-23T19:26:17.104Z,60.60
2019-05-23T19:28:18.418Z,60.50
2019-05-23T19:30:20.950Z,60.20
2019-05-23T19:32:22.602Z,60.00
2019-05-23T19:34:24.882Z,60.30
2019-05-23T19:36:27.541Z,60.30
2019-05-23T19:38:28.782Z,60.20
2019-05-23T19:40:30.301Z,61.30
2019-05-23T19:42:31.711Z,62.30
2019-05-23T19:44:32.983Z,62.20
2019-05-23T19:46:34.257Z,63.80
2019-05-23T19:48:36.557Z,60.60
2019-05-23T19:50:39.031Z,59.60
2019-05-23T19:52:40.793Z,63.80
2019-05-23T19:54:42.908Z,64.40
2019-05-23T19:56:44.169Z,63.90
2019-05-23T19:58:45.849Z,64.00
2019-05-23T20:00:47.587Z,64.10
2019-05-23T20:02:54.125Z,64.00
2019-05-23T20:05:03.106Z,64.60
2019-05-23T20:07:05.038Z,64.20
2019-05-23T20:09:09.749Z,63.40
2019-05-23T20:11:11.284Z,65.10
2019-05-23T20:13:12.730Z,65.00
2019-05-23T20:15:13.966Z,66.30
2019-05-23T20:17:15.641Z,67.40
2019-05-23T20:19:17.101Z,68.10
2019-05-23T20:21:18.869Z,69.40
2019-05-23T20:23:20.398Z,70.70
2019-05-23T20:25:21.894Z,71.60
2019-05-23T20:27:23.254Z,73.00
2019-05-23T20:29:24.628Z,74.30
2019-05-23T20:31:25.988Z,75.40
2019-05-23T20:33:27.566Z,76.90
2019-05-23T20:35:28.706Z,78.00
2019-05-23T20:37:31.119Z,78.80
2019-05-23T20:39:32.386Z,79.60
2019-05-23T20:41:34.628Z,80.10
2019-05-23T20:43:36.003Z,81.50
2019-05-23T20:45:37.885Z,81.40
2019-05-23T20:47:39.463Z,81.50
2019-05-23T20:49:40.638Z,82.00
2019-05-23T20:51:42.222Z,82.50
2019-05-23T20:53:43.530Z,83.00
2019-05-23T20:55:44.902Z,83.30
2019-05-23T20:57:46.171Z,83.70
2019-05-23T20:59:47.438Z,84.00
2019-05-23T21:01:49.206Z,84.60
2019-05-23T21:03:51.499Z,85.50
2019-05-23T21:05:53.151Z,86.10
2019-05-23T21:07:54.294Z,87.80
2019-05-23T21:09:55.686Z,89.60
2019-05-23T21:11:58.050Z,90.20
2019-05-23T21:13:59.330Z,90.80
2019-05-23T21:16:00.588Z,91.50
2019-05-23T21:18:01.854Z,91.90
2019-05-23T21:20:04.642Z,92.50
2019-05-23T21:22:06.018Z,92.90
2019-05-23T21:24:07.575Z,93.30
2019-05-23T21:26:08.787Z,93.50
2019-05-23T21:28:10.066Z,93.70
2019-05-23T21:30:11.580Z,93.80
2019-05-23T21:32:12.854Z,93.90
2019-05-23T21:34:14.276Z,94.00
2019-05-23T21:36:15.642Z,94.20
2019-05-23T21:38:17.179Z,94.40
2019-05-23T21:40:36.928Z,94.40
2019-05-23T21:42:47.363Z,94.30
2019-05-23T21:44:41.382Z,94.20
2019-05-23T21:46:42.662Z,94.20
2019-05-23T21:48:43.975Z,94.10
2019-05-23T21:50:45.294Z,94.30
2019-05-23T21:52:46.655Z,94.30
2019-05-23T21:54:47.944Z,94.20
2019-05-23T21:56:49.273Z,94.50
2019-05-23T21:58:50.542Z,94.60
2019-05-23T22:01:00.620Z,94.80
2019-05-23T22:03:01.997Z,94.60
2019-05-23T22:05:09.440Z,97.40
2019-05-23T22:07:10.949Z,98.80
2019-05-23T22:09:14.844Z,98.20
2019-05-23T22:11:16.723Z,98.70
2019-05-23T22:13:19.895Z,97.40
2019-05-23T22:15:34.575Z,97.50
2019-05-23T22:17:36.097Z,97.30
2019-05-23T22:19:37.468Z,96.50
2019-05-23T22:21:38.737Z,96.40
2019-05-23T22:23:40.015Z,96.60
2019-05-23T22:25:41.458Z,96.80
2019-05-23T22:27:42.731Z,97.00
2019-05-23T22:29:44.031Z,97.50
2019-05-23T22:31:46.001Z,97.80
2019-05-23T22:34:05.631Z,97.80
2019-05-23T22:36:07.883Z,97.80
2019-05-23T22:38:09.254Z,99.00
2019-05-23T22:40:10.755Z,98.90
2019-05-23T22:42:12.781Z,98.50
2019-05-23T22:44:14.241Z,98.00
2019-05-23T22:46:15.531Z,97.50
2019-05-23T22:48:16.789Z,97.20
2019-05-23T22:50:18.268Z,97.20
2019-05-23T22:52:19.588Z,97.10
2019-05-23T22:54:20.854Z,97.00
2019-05-23T22:56:22.388Z,96.90
2019-05-23T22:58:23.621Z,96.70
2019-05-23T23:00:26.805Z,96.90
2019-05-23T23:02:28.071Z,97.10
2019-05-23T23:04:29.378Z,96.80
2019-05-23T23:06:31.418Z,96.60
2019-05-23T23:08:33.102Z,96.70
2019-05-23T23:10:34.405Z,96.60
2019-05-23T23:12:35.691Z,96.30
2019-05-23T23:14:37.050Z,96.30
2019-05-23T23:16:38.321Z,96.20
2019-05-23T23:18:40.756Z,96.10
2019-05-23T23:20:45.410Z,96.10
2019-05-23T23:22:45.280Z,96.20
2019-05-23T23:24:46.694Z,96.40
2019-05-23T23:26:48.039Z,96.30
2019-05-23T23:28:50.307Z,96.40
2019-05-23T23:30:51.696Z,96.40
2019-05-23T23:32:53.082Z,96.50
2019-05-23T23:34:54.641Z,96.50
2019-05-23T23:36:55.786Z,96.60
2019-05-23T23:38:57.071Z,96.90
2019-05-23T23:40:58.748Z,97.10
2019-05-23T23:42:59.988Z,97.40
2019-05-23T23:45:20.388Z,97.60
2019-05-23T23:47:40.245Z,97.70
2019-05-23T23:50:00.083Z,98.00
2019-05-23T23:52:20.109Z,98.50
2019-05-23T23:54:40.293Z,99.00
2019-05-23T23:57:01.542Z,99.50
2019-05-23T23:59:03.891Z,99.70
